Dothan, Alabama
Current Conditions -  °F | °C
As of 1:53 PM on Saturday 25 Oct 2014 (Local Time) from KDHN Reporting Station
Clear Clear  
Wind Chill: 77°   Ceiling: Unl
Heat Index: 78°   Visibility: 10mi
Dew Point: 45°   Wind: 9mph
Humidity: 32%   Direction: 330°NNW
Pressure: 30.06"   Gusts: 16mph
Location:  31.22°N, 85.39°W
Report Text: KDHN 251853Z 33008G14KT 10SM CLR 25/07 A3006 RMK AO2 SLP174 T02500072
Loading
Personal Weather Stations






























Interactive Weather Map New forecast layout! Learn more

10-Day Weather Forecast

Advertisements
Track Severe Weather on mobile